Time;durP1;ratioP1;P1;durP2;ratioP2;P2;SDS_P1;SDS_P2;PMS_P1;PMS_P2;Temp;Humidity;BMP_temperature;BMP_pressure;BME280_temperature;BME280_humidity;BME280_pressure;Samples;Min_cycle;Max_cycle;Signal;HPM_P1;HPM_P2
2023/08/15 00:00:22;;;;;;;16.60;14.57;;;30.40;48.60;;;;;;5038160;28;20546;-79
2023/08/15 00:02:50;;;;;;;15.93;14.30;;;30.40;48.70;;;;;;5041439;28;20418;-79
2023/08/15 00:05:18;;;;;;;15.97;14.03;;;30.40;48.70;;;;;;5041769;28;20802;-78
2023/08/15 00:07:48;;;;;;;16.20;14.60;;;30.40;48.70;;;;;;5041937;28;20534;-78
2023/08/15 00:10:16;;;;;;;16.70;15.00;;;30.40;48.70;;;;;;5041784;28;20533;-78
2023/08/15 00:12:44;;;;;;;15.50;13.90;;;30.40;48.80;;;;;;5044417;28;20435;-79
2023/08/15 00:15:12;;;;;;;15.37;13.80;;;30.30;48.80;;;;;;5039045;28;20471;-78
2023/08/15 00:17:40;;;;;;;15.40;13.80;;;30.30;48.80;;;;;;5041950;28;20482;-79
2023/08/15 00:20:08;;;;;;;15.27;13.77;;;30.30;48.80;;;;;;5044379;28;20455;-79
2023/08/15 00:22:37;;;;;;;14.73;13.27;;;30.30;48.90;;;;;;5044923;28;20510;-78
2023/08/15 00:25:07;;;;;;;14.23;12.83;;;30.30;48.90;;;;;;5037787;28;20448;-79
2023/08/15 00:27:35;;;;;;;15.70;14.00;;;30.20;48.80;;;;;;5041476;28;20458;-79
2023/08/15 00:30:03;;;;;;;15.03;13.50;;;30.20;49.00;;;;;;5043487;28;20490;-79
2023/08/15 00:32:35;;;;;;;16.37;14.37;;;30.20;49.00;;;;;;5044036;28;20436;-79
2023/08/15 00:35:03;;;;;;;15.07;13.57;;;30.20;49.10;;;;;;5042971;28;20443;-79
2023/08/15 00:37:32;;;;;;;15.33;13.70;;;30.20;49.20;;;;;;5034649;28;20470;-78
2023/08/15 00:40:01;;;;;;;14.40;12.90;;;30.20;49.10;;;;;;5031840;28;20576;-78
2023/08/15 00:42:30;;;;;;;14.07;12.67;;;30.10;49.20;;;;;;5036359;28;20441;-79
2023/08/15 00:44:58;;;;;;;13.30;11.90;;;30.10;49.20;;;;;;5035999;28;20460;-79
2023/08/15 00:47:26;;;;;;;14.37;12.87;;;30.10;49.30;;;;;;5043010;28;20414;-79
2023/08/15 00:49:54;;;;;;;14.10;12.70;;;30.10;49.30;;;;;;5043302;28;20453;-79
2023/08/15 00:52:22;;;;;;;14.43;12.43;;;30.00;49.30;;;;;;5043279;28;20435;-79
2023/08/15 00:54:51;;;;;;;13.07;11.77;;;30.00;49.30;;;;;;5043688;28;20521;-79
2023/08/15 00:57:19;;;;;;;13.27;12.07;;;30.00;49.40;;;;;;5035160;28;20443;-79
2023/08/15 00:59:48;;;;;;;13.30;11.97;;;30.00;49.60;;;;;;5040210;28;20528;-79
2023/08/15 01:02:16;;;;;;;13.83;12.43;;;30.00;49.50;;;;;;5041836;28;20475;-79
2023/08/15 01:04:44;;;;;;;13.80;11.83;;;30.00;49.60;;;;;;5042405;28;20466;-79
2023/08/15 01:07:12;;;;;;;12.60;11.30;;;30.00;49.60;;;;;;5042902;28;20435;-79
2023/08/15 01:09:40;;;;;;;12.53;11.30;;;29.90;49.60;;;;;;5040882;28;20481;-79
2023/08/15 01:12:12;;;;;;;12.67;11.43;;;29.90;49.70;;;;;;5036155;28;20519;-79
2023/08/15 01:14:42;;;;;;;12.80;11.50;;;30.00;49.70;;;;;;5039703;28;20463;-79
2023/08/15 01:17:13;;;;;;;12.33;11.00;;;29.90;49.60;;;;;;5041135;28;20456;-79
2023/08/15 01:19:43;;;;;;;12.47;11.17;;;29.90;49.70;;;;;;5043411;28;20459;-79
2023/08/15 01:22:15;;;;;;;13.20;11.80;;;29.90;49.80;;;;;;5043924;28;20525;-79
2023/08/15 01:24:44;;;;;;;12.77;11.00;;;29.90;49.90;;;;;;5041795;28;20454;-79
2023/08/15 01:27:12;;;;;;;12.30;10.90;;;29.90;49.90;;;;;;5042174;28;20458;-79
2023/08/15 01:29:40;;;;;;;13.70;11.00;;;29.80;50.00;;;;;;5041946;28;20471;-79
2023/08/15 01:32:13;;;;;;;11.90;10.70;;;29.90;50.00;;;;;;5042878;28;20458;-80
2023/08/15 01:34:43;;;;;;;11.20;10.20;;;29.80;49.90;;;;;;5036270;28;20515;-79
2023/08/15 01:37:15;;;;;;;11.40;10.20;;;29.80;49.90;;;;;;5043132;28;20458;-79
2023/08/15 01:39:44;;;;;;;11.20;10.03;;;29.80;50.00;;;;;;5042081;28;20495;-79
2023/08/15 01:42:12;;;;;;;10.87;9.97;;;29.80;50.00;;;;;;5041313;28;20499;-79
2023/08/15 01:44:40;;;;;;;13.00;10.40;;;29.80;50.10;;;;;;5034403;28;20519;-79
2023/08/15 01:47:08;;;;;;;10.90;9.80;;;29.80;50.10;;;;;;5042276;28;20471;-79
2023/08/15 01:49:36;;;;;;;11.87;10.60;;;29.70;50.00;;;;;;5042004;28;20479;-79
2023/08/15 01:52:05;;;;;;;10.77;9.63;;;29.70;50.10;;;;;;5038489;28;20444;-79
2023/08/15 01:54:33;;;;;;;13.33;9.80;;;29.70;50.00;;;;;;5041480;28;20414;-79
2023/08/15 01:57:03;;;;;;;11.20;10.10;;;29.70;50.20;;;;;;5041649;28;20467;-78
2023/08/15 01:59:31;;;;;;;11.07;9.97;;;29.60;50.20;;;;;;5041563;28;20459;-79
2023/08/15 02:01:59;;;;;;;12.60;10.60;;;29.70;50.90;;;;;;5021981;28;20483;-78
2023/08/15 02:04:27;;;;;;;11.07;9.53;;;29.70;50.20;;;;;;5026797;28;20410;-78
2023/08/15 02:06:55;;;;;;;10.63;9.70;;;29.60;50.20;;;;;;5038629;28;20445;-78
2023/08/15 02:09:23;;;;;;;10.53;9.53;;;29.60;50.20;;;;;;5040187;28;20467;-79
2023/08/15 02:11:52;;;;;;;10.97;9.77;;;29.70;50.20;;;;;;5040875;28;20478;-79
2023/08/15 02:14:21;;;;;;;11.10;10.10;;;29.60;50.10;;;;;;5040692;28;20418;-79
2023/08/15 02:16:50;;;;;;;11.50;9.90;;;29.60;50.20;;;;;;5044014;28;20465;-78
2023/08/15 02:19:18;;;;;;;11.13;10.03;;;29.60;50.20;;;;;;5043517;28;20535;-79
2023/08/15 02:21:46;;;;;;;10.30;9.30;;;29.60;50.40;;;;;;5044014;28;20439;-78
2023/08/15 02:24:14;;;;;;;10.57;9.53;;;29.60;50.20;;;;;;5036227;28;20430;-79
2023/08/15 02:26:43;;;;;;;10.27;9.37;;;29.60;50.30;;;;;;5041199;28;20447;-78
2023/08/15 02:29:13;;;;;;;10.77;9.10;;;29.60;50.30;;;;;;5041315;28;20502;-78
2023/08/15 02:31:44;;;;;;;10.67;9.70;;;29.50;50.30;;;;;;5042314;28;20458;-80
2023/08/15 02:34:12;;;;;;;9.70;8.70;;;29.50;50.20;;;;;;5042542;28;20459;-79
2023/08/15 02:36:40;;;;;;;11.60;9.00;;;29.50;50.40;;;;;;5040801;28;20479;-78
2023/08/15 02:39:08;;;;;;;10.20;9.20;;;29.50;50.30;;;;;;5024458;28;20475;-79
2023/08/15 02:41:36;;;;;;;9.43;8.53;;;29.50;50.50;;;;;;5039769;28;20475;-79
2023/08/15 02:44:05;;;;;;;9.70;8.80;;;29.50;50.50;;;;;;5040703;28;20469;-79
2023/08/15 02:46:33;;;;;;;9.40;8.53;;;29.50;50.50;;;;;;5041675;28;20474;-79
2023/08/15 02:49:02;;;;;;;9.83;8.93;;;29.50;50.50;;;;;;5038004;28;20463;-79
2023/08/15 02:51:30;;;;;;;9.50;8.60;;;29.50;50.40;;;;;;5031222;28;20505;-79
2023/08/15 02:53:58;;;;;;;9.20;8.37;;;29.40;50.50;;;;;;5026583;28;20428;-79
2023/08/15 02:56:26;;;;;;;12.80;8.70;;;29.40;50.60;;;;;;5035240;28;20478;-79
2023/08/15 02:58:54;;;;;;;9.90;9.00;;;29.40;50.50;;;;;;5040573;28;20471;-79
2023/08/15 03:01:23;;;;;;;8.67;7.97;;;29.40;50.30;;;;;;5035606;28;20436;-79
2023/08/15 03:03:51;;;;;;;10.00;8.40;;;29.40;50.60;;;;;;5050519;28;20475;-79
2023/08/15 03:06:20;;;;;;;8.03;7.33;;;29.30;50.50;;;;;;5050486;28;20438;-78
2023/08/15 03:08:49;;;;;;;9.40;8.50;;;29.30;50.60;;;;;;5041782;28;20546;-78
2023/08/15 03:11:16;;;;;;;9.10;8.13;;;29.30;51.20;;;;;;5041541;28;20466;-78
2023/08/15 03:13:45;;;;;;;9.60;8.70;;;29.30;50.60;;;;;;5038172;28;20448;-79
2023/08/15 03:16:13;;;;;;;8.70;7.90;;;29.30;50.60;;;;;;5042013;28;20439;-79
2023/08/15 03:18:40;;;;;;;8.20;7.50;;;29.30;50.60;;;;;;5041557;28;20436;-79
2023/08/15 03:21:09;;;;;;;9.93;8.93;;;29.30;50.80;;;;;;5034044;28;20441;-78
2023/08/15 03:23:38;;;;;;;8.63;7.97;;;29.30;50.80;;;;;;5042664;28;20450;-79
2023/08/15 03:26:06;;;;;;;8.67;7.87;;;29.30;50.90;;;;;;5031994;28;20453;-79
2023/08/15 03:28:34;;;;;;;8.57;7.77;;;29.30;50.70;;;;;;5029620;28;20472;-78
2023/08/15 03:31:04;;;;;;;7.83;7.17;;;29.20;50.80;;;;;;5039839;28;20518;-78
2023/08/15 03:33:32;;;;;;;7.80;7.20;;;29.20;50.80;;;;;;5041447;28;20525;-79
2023/08/15 03:36:00;;;;;;;8.40;7.60;;;29.20;50.80;;;;;;5040987;28;20444;-79
2023/08/15 03:38:28;;;;;;;8.60;7.80;;;29.20;50.80;;;;;;5036606;28;20499;-79
2023/08/15 03:41:03;;;;;;;8.27;7.17;;;29.20;50.80;;;;;;5045378;28;20419;-79
2023/08/15 03:43:31;;;;;;;7.53;6.90;;;29.20;50.90;;;;;;5037975;28;20497;-78
2023/08/15 03:46:00;;;;;;;8.53;7.73;;;29.10;50.90;;;;;;5032428;28;20507;-79
2023/08/15 03:48:29;;;;;;;8.50;7.77;;;29.20;50.80;;;;;;5036451;28;20818;-79
2023/08/15 03:50:58;;;;;;;7.93;7.33;;;29.10;51.50;;;;;;5041629;28;20523;-78
2023/08/15 03:53:26;;;;;;;7.90;7.20;;;29.10;50.50;;;;;;5038514;28;20475;-79
2023/08/15 03:55:54;;;;;;;8.40;7.33;;;29.10;51.10;;;;;;5037365;28;20538;-78
2023/08/15 03:58:23;;;;;;;7.70;7.10;;;29.10;50.80;;;;;;5023683;28;20460;-79
2023/08/15 04:00:51;;;;;;;7.80;7.20;;;29.10;51.00;;;;;;5025513;28;20479;-79
2023/08/15 04:03:19;;;;;;;8.03;7.20;;;29.10;50.80;;;;;;5035993;28;20466;-79
2023/08/15 04:05:47;;;;;;;8.17;7.47;;;29.10;51.00;;;;;;5035959;28;20448;-79
2023/08/15 04:08:16;;;;;;;7.77;7.17;;;29.10;51.00;;;;;;5023222;28;20486;-81
2023/08/15 04:10:45;;;;;;;8.20;7.40;;;29.10;51.50;;;;;;5040078;28;20493;-79
2023/08/15 04:13:14;;;;;;;9.00;8.10;;;29.00;50.90;;;;;;5039347;28;20482;-79
2023/08/15 04:15:44;;;;;;;8.00;7.30;;;29.00;50.80;;;;;;5039431;28;20452;-79
2023/08/15 04:18:12;;;;;;;8.00;7.20;;;29.00;51.00;;;;;;5039652;28;20478;-79
2023/08/15 04:20:41;;;;;;;7.43;6.80;;;29.00;51.30;;;;;;5038950;28;20555;-80
2023/08/15 04:23:09;;;;;;;7.60;6.90;;;29.00;51.10;;;;;;5039729;28;20466;-79
2023/08/15 04:25:37;;;;;;;8.10;7.40;;;29.00;51.10;;;;;;5037053;28;20538;-77
2023/08/15 04:28:06;;;;;;;8.03;7.23;;;29.00;51.10;;;;;;5033784;28;20488;-77
2023/08/15 04:30:34;;;;;;;8.10;7.33;;;29.00;51.00;;;;;;5027778;28;20528;-77
2023/08/15 04:33:04;;;;;;;7.20;6.60;;;29.00;51.10;;;;;;5033967;28;20482;-77
2023/08/15 04:35:32;;;;;;;7.80;7.10;;;29.00;51.10;;;;;;5036323;28;20411;-79
2023/08/15 04:38:00;;;;;;;7.10;6.50;;;28.90;51.00;;;;;;5034410;28;20480;-77
2023/08/15 04:40:31;;;;;;;7.23;6.63;;;28.90;51.00;;;;;;5033442;28;20467;-77
2023/08/15 04:42:59;;;;;;;7.00;6.40;;;29.00;51.30;;;;;;5023848;28;20441;-77
2023/08/15 04:45:27;;;;;;;6.60;6.00;;;28.90;51.00;;;;;;5018439;28;20452;-77
2023/08/15 04:47:55;;;;;;;7.47;6.67;;;28.90;51.00;;;;;;5033239;28;20460;-77
2023/08/15 04:50:25;;;;;;;7.30;6.70;;;28.90;51.40;;;;;;5032718;28;20463;-77
2023/08/15 04:52:53;;;;;;;8.13;6.90;;;28.90;51.10;;;;;;5033891;28;20456;-77
2023/08/15 04:55:20;;;;;;;9.00;7.00;;;28.90;51.30;;;;;;5014472;28;20547;-77
2023/08/15 04:57:48;;;;;;;7.47;6.70;;;28.90;51.30;;;;;;5013520;28;20523;-77
2023/08/15 05:00:19;;;;;;;7.10;6.40;;;28.90;51.40;;;;;;5024098;28;20544;-77
2023/08/15 05:02:47;;;;;;;7.60;6.90;;;28.90;51.30;;;;;;5033292;28;20444;-77
2023/08/15 05:05:16;;;;;;;6.97;6.37;;;28.90;51.20;;;;;;5033090;28;20415;-77
2023/08/15 05:07:45;;;;;;;7.07;6.47;;;28.90;51.40;;;;;;5033064;28;20505;-77
2023/08/15 05:10:13;;;;;;;6.73;6.23;;;28.90;51.40;;;;;;5016903;28;20542;-78
2023/08/15 05:12:41;;;;;;;7.03;6.47;;;28.90;51.50;;;;;;5032966;28;20471;-77
2023/08/15 05:15:09;;;;;;;6.20;5.70;;;28.90;51.50;;;;;;5015560;28;20503;-77
2023/08/15 05:17:37;;;;;;;7.03;6.23;;;28.90;51.50;;;;;;5016827;28;20487;-77
2023/08/15 05:20:07;;;;;;;8.00;6.37;;;28.90;51.50;;;;;;5033694;28;20437;-77
2023/08/15 05:22:35;;;;;;;7.70;6.90;;;28.90;51.40;;;;;;5033673;28;20410;-78
2023/08/15 05:25:05;;;;;;;7.80;6.13;;;28.80;51.60;;;;;;5033431;28;20467;-77
2023/08/15 05:27:33;;;;;;;6.60;6.10;;;28.90;51.70;;;;;;5033155;28;20468;-77
2023/08/15 05:30:02;;;;;;;6.70;6.20;;;28.90;51.50;;;;;;5025148;28;20566;-77
2023/08/15 05:32:30;;;;;;;7.10;6.50;;;28.90;51.70;;;;;;5027083;28;20451;-77
2023/08/15 05:34:58;;;;;;;7.03;6.43;;;28.80;51.80;;;;;;5031010;28;20542;-76
2023/08/15 05:37:26;;;;;;;6.73;6.03;;;28.90;51.90;;;;;;5030180;28;20531;-77
2023/08/15 05:39:54;;;;;;;7.00;6.10;;;28.90;52.00;;;;;;5014183;28;20452;-77
2023/08/15 05:42:23;;;;;;;6.90;6.20;;;28.90;51.90;;;;;;5032138;28;20414;-77
2023/08/15 05:44:51;;;;;;;7.13;6.43;;;28.80;52.00;;;;;;5032896;28;20432;-77
2023/08/15 05:47:20;;;;;;;6.50;5.97;;;28.90;52.10;;;;;;5032609;28;20478;-77
2023/08/15 05:49:49;;;;;;;7.10;6.07;;;28.80;52.10;;;;;;5035945;28;20533;-77
2023/08/15 05:52:17;;;;;;;6.53;5.93;;;28.80;52.20;;;;;;5036586;28;20425;-78
2023/08/15 05:54:45;;;;;;;5.80;5.47;;;28.80;52.20;;;;;;5036994;28;20502;-77
2023/08/15 05:57:12;;;;;;;6.73;6.13;;;28.90;52.40;;;;;;5036943;28;20475;-77
2023/08/15 05:59:42;;;;;;;6.20;5.60;;;28.90;52.10;;;;;;5039474;28;20554;-78
2023/08/15 06:02:11;;;;;;;6.80;6.30;;;28.90;52.10;;;;;;5040605;28;20507;-77
2023/08/15 06:04:39;;;;;;;7.07;5.70;;;28.80;52.20;;;;;;5041167;28;20547;-78
2023/08/15 06:07:07;;;;;;;6.10;5.60;;;28.80;52.30;;;;;;5040571;28;20451;-77
2023/08/15 06:09:35;;;;;;;6.53;5.30;;;28.80;52.40;;;;;;5041848;28;20562;-77
2023/08/15 06:12:04;;;;;;;6.30;5.70;;;28.90;52.40;;;;;;5042082;28;20421;-77
2023/08/15 06:14:32;;;;;;;6.10;5.60;;;28.90;52.50;;;;;;5042364;28;20562;-78
2023/08/15 06:17:02;;;;;;;11.23;5.93;;;28.90;52.50;;;;;;5043243;28;20445;-78
2023/08/15 06:19:30;;;;;;;6.17;5.63;;;28.80;52.40;;;;;;5028138;28;20459;-79
2023/08/15 06:21:58;;;;;;;6.37;5.17;;;28.80;52.60;;;;;;5036766;28;20461;-77
2023/08/15 06:24:26;;;;;;;6.07;5.67;;;28.80;52.70;;;;;;5036238;28;20501;-78
2023/08/15 06:26:54;;;;;;;5.87;5.43;;;28.80;52.80;;;;;;5037020;28;20501;-79
2023/08/15 06:29:21;;;;;;;5.83;5.23;;;28.80;52.80;;;;;;5036274;28;20993;-79
2023/08/15 06:31:50;;;;;;;6.10;5.50;;;28.80;52.80;;;;;;5036972;28;20434;-79
2023/08/15 06:34:19;;;;;;;5.47;5.07;;;28.80;52.90;;;;;;5036507;28;20904;-79
2023/08/15 06:36:46;;;;;;;6.40;5.80;;;28.90;52.60;;;;;;5030892;28;20440;-78
2023/08/15 06:39:15;;;;;;;6.40;5.30;;;28.80;52.70;;;;;;5016340;28;20528;-78
2023/08/15 06:41:43;;;;;;;6.43;5.33;;;28.80;52.70;;;;;;5029026;28;20485;-79
2023/08/15 06:44:10;;;;;;;5.80;5.33;;;28.80;52.90;;;;;;5036787;28;20837;-79
2023/08/15 06:46:39;;;;;;;5.83;5.33;;;28.80;52.80;;;;;;5036294;28;20958;-79
2023/08/15 06:49:07;;;;;;;5.77;5.20;;;28.80;52.70;;;;;;5035723;28;20538;-78
2023/08/15 06:51:36;;;;;;;6.20;5.60;;;28.80;52.90;;;;;;5036469;28;20549;-80
2023/08/15 06:54:05;;;;;;;6.80;6.10;;;28.80;52.80;;;;;;5036789;28;20440;-79
2023/08/15 06:56:32;;;;;;;6.03;5.53;;;28.80;52.80;;;;;;5024650;28;20432;-79
2023/08/15 06:59:00;;;;;;;5.70;5.10;;;28.80;52.50;;;;;;5036820;28;20511;-79
2023/08/15 07:01:28;;;;;;;5.30;4.90;;;28.80;52.60;;;;;;5035796;28;20417;-79
2023/08/15 07:03:57;;;;;;;6.50;5.53;;;28.80;52.60;;;;;;5036634;28;20515;-79
2023/08/15 07:06:25;;;;;;;5.60;5.13;;;28.80;52.60;;;;;;5034728;28;20491;-79
2023/08/15 07:08:54;;;;;;;6.63;6.00;;;28.80;52.70;;;;;;5024711;28;20560;-79
2023/08/15 07:11:22;;;;;;;5.30;4.90;;;28.80;52.80;;;;;;5036807;28;20490;-79
2023/08/15 07:13:50;;;;;;;5.60;5.20;;;28.80;53.00;;;;;;5032467;28;20451;-80
2023/08/15 07:16:18;;;;;;;5.90;5.30;;;28.80;53.00;;;;;;5035232;28;20554;-79
2023/08/15 07:18:46;;;;;;;5.90;5.40;;;28.80;53.10;;;;;;5035744;28;20469;-78
2023/08/15 07:21:14;;;;;;;6.20;5.30;;;28.80;53.10;;;;;;5036215;28;20454;-79
2023/08/15 07:23:45;;;;;;;5.60;5.10;;;28.90;52.90;;;;;;5036752;28;20447;-78
2023/08/15 07:26:14;;;;;;;5.47;5.07;;;28.90;52.90;;;;;;5030195;28;20459;-78
2023/08/15 07:28:42;;;;;;;5.50;5.00;;;28.80;53.00;;;;;;5029060;28;20542;-78
2023/08/15 07:31:11;;;;;;;5.87;5.30;;;28.80;53.20;;;;;;5035369;28;20447;-79
2023/08/15 07:33:39;;;;;;;5.37;4.97;;;28.90;53.20;;;;;;5030320;28;20474;-78
2023/08/15 07:36:07;;;;;;;5.50;5.10;;;28.90;53.10;;;;;;5029192;28;20468;-77
2023/08/15 07:38:35;;;;;;;9.20;5.03;;;28.90;53.10;;;;;;5028288;28;20443;-78
2023/08/15 07:41:03;;;;;;;6.30;5.30;;;28.80;53.00;;;;;;5030389;28;20543;-79
2023/08/15 07:43:32;;;;;;;5.53;5.03;;;28.90;53.20;;;;;;5029774;28;20452;-79
2023/08/15 07:46:00;;;;;;;5.33;4.93;;;28.90;53.20;;;;;;5028836;28;20497;-78
2023/08/15 07:48:29;;;;;;;6.17;5.57;;;28.90;53.20;;;;;;5030985;28;20446;-78
2023/08/15 07:50:57;;;;;;;6.40;5.90;;;28.90;53.40;;;;;;5027293;28;20498;-78
2023/08/15 07:53:25;;;;;;;5.53;5.13;;;28.90;53.40;;;;;;5026038;28;20535;-79
2023/08/15 07:55:53;;;;;;;6.20;5.70;;;28.90;53.50;;;;;;5034603;28;20507;-78
2023/08/15 07:58:22;;;;;;;5.30;4.90;;;28.90;53.50;;;;;;5033714;28;20489;-78
2023/08/15 08:00:52;;;;;;;5.77;5.30;;;29.00;53.50;;;;;;5033757;28;20422;-79
2023/08/15 08:03:20;;;;;;;5.97;5.37;;;29.00;53.60;;;;;;5032644;28;20468;-78
2023/08/15 08:05:48;;;;;;;6.00;5.30;;;29.00;53.60;;;;;;5029536;28;20439;-77
2023/08/15 08:08:17;;;;;;;5.97;5.37;;;29.00;53.50;;;;;;5025687;28;20944;-77
2023/08/15 08:10:45;;;;;;;6.43;5.40;;;29.00;53.70;;;;;;5029437;28;20555;-76
2023/08/15 08:13:16;;;;;;;5.63;5.23;;;29.00;53.80;;;;;;5026170;28;20867;-77
2023/08/15 08:15:47;;;;;;;5.90;5.30;;;29.00;53.60;;;;;;5029015;28;20470;-77
2023/08/15 08:18:16;;;;;;;5.87;5.47;;;29.00;53.80;;;;;;5024501;28;20448;-77
2023/08/15 08:20:44;;;;;;;6.30;5.73;;;29.00;53.80;;;;;;5029698;28;20510;-80
2023/08/15 08:23:12;;;;;;;6.90;5.47;;;29.10;53.80;;;;;;5027536;28;20433;-77
2023/08/15 08:25:41;;;;;;;6.23;5.63;;;29.20;53.80;;;;;;5025511;28;20419;-77
2023/08/15 08:28:09;;;;;;;5.63;5.13;;;29.20;53.80;;;;;;5030956;28;20443;-78
2023/08/15 08:30:37;;;;;;;5.87;5.27;;;29.30;53.50;;;;;;5026854;28;20467;-78
2023/08/15 08:33:05;;;;;;;5.93;5.47;;;29.40;53.40;;;;;;5029973;28;20426;-77
2023/08/15 08:35:35;;;;;;;5.73;5.23;;;29.40;53.30;;;;;;5024442;28;20460;-77
2023/08/15 08:38:03;;;;;;;5.87;5.37;;;29.40;53.10;;;;;;5022580;28;20414;-77
2023/08/15 08:40:31;;;;;;;8.33;5.10;;;29.40;53.30;;;;;;5029181;28;20450;-76
2023/08/15 08:43:01;;;;;;;5.47;5.10;;;29.50;53.40;;;;;;5028658;28;20451;-78
2023/08/15 08:45:30;;;;;;;5.70;5.00;;;29.60;53.50;;;;;;5028487;28;20467;-78
2023/08/15 08:47:59;;;;;;;5.90;5.50;;;29.80;53.50;;;;;;5026847;28;20447;-77
2023/08/15 08:50:27;;;;;;;5.50;5.20;;;30.00;53.30;;;;;;5024485;28;20503;-77
2023/08/15 08:52:57;;;;;;;6.00;5.60;;;30.20;53.10;;;;;;5028510;28;20455;-78
2023/08/15 08:55:24;;;;;;;5.60;5.20;;;30.20;52.60;;;;;;5031844;28;20535;-77
2023/08/15 08:57:53;;;;;;;5.70;5.13;;;30.30;52.70;;;;;;5033359;28;20867;-78
2023/08/15 09:00:25;;;;;;;4.87;4.57;;;30.30;52.50;;;;;;5020360;28;20464;-76
2023/08/15 09:02:53;;;;;;;5.83;5.43;;;30.50;52.50;;;;;;5024489;28;20502;-77
2023/08/15 09:05:22;;;;;;;6.97;6.17;;;30.70;52.50;;;;;;5034161;28;20443;-78
2023/08/15 09:07:50;;;;;;;11.73;4.50;;;30.90;52.40;;;;;;5032694;28;20451;-78
2023/08/15 09:10:22;;;;;;;5.73;5.03;;;31.00;52.20;;;;;;5030758;28;21036;-78
2023/08/15 09:12:50;;;;;;;4.83;4.53;;;31.20;52.00;;;;;;5032642;28;20456;-78
2023/08/15 09:15:18;;;;;;;5.57;5.10;;;31.30;51.80;;;;;;5033075;28;20444;-77
2023/08/15 09:17:46;;;;;;;4.80;4.47;;;31.50;51.70;;;;;;5028834;28;20499;-78
2023/08/15 09:20:15;;;;;;;4.73;4.40;;;31.60;51.40;;;;;;5032815;28;20550;-78
2023/08/15 09:22:44;;;;;;;4.70;4.30;;;31.80;51.40;;;;;;5033589;28;20460;-78
2023/08/15 09:25:14;;;;;;;4.93;4.63;;;31.90;51.20;;;;;;5031064;28;20472;-78
2023/08/15 09:27:44;;;;;;;4.87;4.47;;;32.10;51.10;;;;;;5038906;28;20428;-78
2023/08/15 09:30:13;;;;;;;5.20;4.80;;;32.20;50.80;;;;;;5044827;28;20471;-78
2023/08/15 09:32:41;;;;;;;4.50;4.23;;;32.40;50.90;;;;;;5038847;28;20535;-78
2023/08/15 09:35:09;;;;;;;4.57;4.23;;;32.50;50.70;;;;;;5039792;28;20451;-78
2023/08/15 09:37:41;;;;;;;4.40;4.20;;;32.50;50.70;;;;;;5039622;28;20562;-77
2023/08/15 09:40:15;;;;;;;4.07;3.77;;;32.70;50.60;;;;;;5039796;28;20486;-78
2023/08/15 09:42:44;;;;;;;4.90;4.57;;;32.70;50.40;;;;;;5041481;28;20451;-78
2023/08/15 09:45:13;;;;;;;4.27;3.97;;;32.80;50.30;;;;;;5041789;28;20447;-77
2023/08/15 09:47:41;;;;;;;4.90;4.60;;;33.00;50.60;;;;;;5038088;28;20478;-78
2023/08/15 09:50:13;;;;;;;5.00;4.60;;;33.10;50.30;;;;;;5034872;28;20466;-77
2023/08/15 09:52:42;;;;;;;4.60;4.30;;;33.10;50.30;;;;;;5038146;28;20443;-76
2023/08/15 09:55:10;;;;;;;4.43;4.13;;;33.30;50.30;;;;;;5037390;28;20915;-77
2023/08/15 09:57:39;;;;;;;3.80;3.60;;;33.60;50.20;;;;;;5037818;28;20502;-77
2023/08/15 10:00:11;;;;;;;4.10;3.90;;;33.60;49.90;;;;;;5037986;28;20498;-77
2023/08/15 10:02:43;;;;;;;4.50;4.20;;;33.80;49.90;;;;;;5037472;28;20519;-78
2023/08/15 10:05:12;;;;;;;4.33;3.93;;;34.00;49.80;;;;;;5034940;28;20442;-77
2023/08/15 10:07:41;;;;;;;4.20;3.90;;;34.00;49.30;;;;;;5037444;28;20424;-78
2023/08/15 10:10:09;;;;;;;4.07;3.87;;;34.20;49.60;;;;;;5037814;28;20463;-77
2023/08/15 10:12:38;;;;;;;4.00;3.80;;;34.40;49.50;;;;;;5038771;28;20447;-77
2023/08/15 10:15:09;;;;;;;4.33;3.60;;;34.50;49.20;;;;;;5039109;28;20462;-78
2023/08/15 10:17:37;;;;;;;4.10;3.80;;;34.60;48.80;;;;;;5045073;28;20517;-78
2023/08/15 10:20:10;;;;;;;4.83;4.23;;;34.70;48.90;;;;;;5038950;28;20455;-78
2023/08/15 10:22:38;;;;;;;3.70;3.50;;;34.70;48.70;;;;;;5043606;28;20427;-78
2023/08/15 10:25:19;;;;;;;3.87;3.40;;;34.70;49.00;;;;;;5042530;28;20436;-79
2023/08/15 10:27:49;;;;;;;4.17;3.87;;;34.60;49.10;;;;;;5040551;28;20474;-78
2023/08/15 10:30:33;;;;;;;3.53;3.33;;;34.60;49.20;;;;;;5041751;28;20478;-78
2023/08/15 10:33:01;;;;;;;3.83;3.50;;;34.60;49.40;;;;;;5033206;28;20458;-79
2023/08/15 10:35:32;;;;;;;3.37;3.13;;;34.90;49.30;;;;;;5031736;28;20526;-78
2023/08/15 10:38:13;;;;;;;3.90;3.60;;;35.00;49.10;;;;;;5031359;28;20473;-78
2023/08/15 10:40:41;;;;;;;4.13;3.50;;;35.20;48.90;;;;;;5031964;28;20475;-78
2023/08/15 10:43:10;;;;;;;3.30;3.10;;;35.40;48.90;;;;;;5032077;28;20527;-78
2023/08/15 10:45:42;;;;;;;2.93;2.83;;;35.50;48.60;;;;;;5027370;28;20436;-77
2023/08/15 10:48:10;;;;;;;3.10;3.00;;;35.70;48.40;;;;;;5038409;28;20487;-78
2023/08/15 10:50:43;;;;;;;2.37;2.27;;;35.90;48.30;;;;;;5037619;28;20491;-78
2023/08/15 10:53:12;;;;;;;3.30;3.10;;;36.00;47.90;;;;;;5041063;28;20462;-80
2023/08/15 10:55:40;;;;;;;3.17;2.97;;;36.20;48.00;;;;;;5040810;28;20447;-79
2023/08/15 10:58:11;;;;;;;3.00;2.90;;;36.30;47.80;;;;;;5040140;28;20471;-80
2023/08/15 11:00:41;;;;;;;3.00;2.80;;;36.50;47.50;;;;;;5032391;28;20493;-79
2023/08/15 11:03:09;;;;;;;2.83;2.63;;;36.70;47.40;;;;;;5040511;28;20526;-79
2023/08/15 11:05:38;;;;;;;2.67;2.57;;;36.80;47.20;;;;;;5040997;28;20522;-79
2023/08/15 11:08:11;;;;;;;2.50;2.40;;;37.00;47.00;;;;;;5037906;28;20451;-79
2023/08/15 11:10:46;;;;;;;2.87;2.60;;;37.10;46.80;;;;;;5041597;28;20455;-79
2023/08/15 11:13:15;;;;;;;2.50;2.40;;;37.20;46.60;;;;;;5038003;28;20798;-79
2023/08/15 11:15:44;;;;;;;2.60;2.40;;;37.40;46.50;;;;;;5032095;28;20530;-79
2023/08/15 11:18:12;;;;;;;2.30;2.20;;;37.50;46.40;;;;;;5033786;28;21031;-79
2023/08/15 11:20:40;;;;;;;2.30;2.20;;;37.60;46.20;;;;;;5034619;28;20494;-79
2023/08/15 11:23:09;;;;;;;2.20;2.10;;;37.80;46.10;;;;;;5030636;28;20436;-79
2023/08/15 11:25:36;;;;;;;2.40;2.30;;;38.00;45.90;;;;;;5032962;28;20463;-79
2023/08/15 11:28:06;;;;;;;2.37;2.27;;;38.20;45.60;;;;;;5036851;28;20448;-79
2023/08/15 11:30:33;;;;;;;2.30;2.20;;;38.20;45.30;;;;;;5034501;28;20537;-79
2023/08/15 11:33:03;;;;;;;2.10;2.00;;;38.20;45.40;;;;;;5036084;28;20442;-79
2023/08/15 11:35:30;;;;;;;1.93;1.83;;;38.20;45.40;;;;;;5035695;28;20438;-79
2023/08/15 11:38:00;;;;;;;1.83;1.83;;;38.10;45.00;;;;;;5029886;28;20574;-79
2023/08/15 11:40:27;;;;;;;1.87;1.77;;;37.90;45.60;;;;;;5031032;28;20459;-79
2023/08/15 11:42:55;;;;;;;2.20;2.10;;;37.80;45.60;;;;;;5032246;28;20443;-79
2023/08/15 11:45:23;;;;;;;2.30;2.20;;;37.70;46.00;;;;;;5030205;28;20441;-78
2023/08/15 11:47:58;;;;;;;1.60;1.60;;;37.90;46.10;;;;;;5030186;28;20467;-80
2023/08/15 11:50:29;;;;;;;1.93;1.83;;;37.90;45.50;;;;;;5033347;28;20451;-79
2023/08/15 11:53:12;;;;;;;1.80;1.70;;;37.80;45.60;;;;;;5031916;28;20436;-79
2023/08/15 11:55:43;;;;;;;1.43;1.43;;;37.70;46.00;;;;;;5031949;28;20452;-80
2023/08/15 11:58:26;;;;;;;1.80;1.70;;;38.00;45.90;;;;;;5034326;28;20558;-80
2023/08/15 12:00:55;;;;;;;1.80;1.80;;;38.00;45.70;;;;;;5036185;28;20440;-80
2023/08/15 12:03:25;;;;;;;1.73;1.73;;;38.00;45.30;;;;;;5034238;28;20436;-80
2023/08/15 12:05:55;;;;;;;1.37;1.37;;;38.20;45.60;;;;;;5028402;28;20437;-80
2023/08/15 12:08:24;;;;;;;1.50;1.40;;;38.00;45.20;;;;;;5037676;28;20495;-80
2023/08/15 12:10:53;;;;;;;1.80;1.70;;;38.20;45.40;;;;;;5042474;28;20448;-80
2023/08/15 12:13:30;;;;;;;1.47;1.47;;;38.10;45.00;;;;;;5040616;28;20533;-78
2023/08/15 12:15:58;;;;;;;1.70;1.60;;;38.00;44.90;;;;;;5033299;28;20443;-79
2023/08/15 12:18:26;;;;;;;2.17;1.97;;;37.80;45.20;;;;;;5032327;28;20468;-80
2023/08/15 12:20:55;;;;;;;1.83;1.73;;;37.90;45.20;;;;;;5034562;28;20462;-79
2023/08/15 12:23:23;;;;;;;1.50;1.50;;;38.00;45.60;;;;;;5036740;28;20459;-79
2023/08/15 12:25:56;;;;;;;1.27;1.27;;;38.10;45.20;;;;;;5036186;28;20432;-77
2023/08/15 12:28:23;;;;;;;1.57;1.47;;;38.30;45.00;;;;;;5023027;28;20881;-78
2023/08/15 12:30:56;;;;;;;1.20;1.20;;;38.40;44.60;;;;;;5035349;28;20446;-79
2023/08/15 12:33:24;;;;;;;1.60;1.50;;;38.50;44.40;;;;;;5033941;28;20444;-79
2023/08/15 12:35:56;;;;;;;1.70;1.67;;;38.50;44.30;;;;;;5036234;28;20527;-79
2023/08/15 12:38:24;;;;;;;2.10;1.50;;;38.60;44.40;;;;;;5037552;28;20914;-80
2023/08/15 12:40:52;;;;;;;1.67;1.57;;;38.70;44.00;;;;;;5035576;28;20482;-78
2023/08/15 12:43:20;;;;;;;4.10;1.60;;;38.70;44.20;;;;;;5042793;28;20462;-79
2023/08/15 12:45:48;;;;;;;1.90;1.80;;;38.90;44.10;;;;;;5039111;28;20862;-78
2023/08/15 12:48:16;;;;;;;4.73;1.57;;;39.10;43.80;;;;;;5022939;28;20542;-78
2023/08/15 12:50:44;;;;;;;1.13;1.13;;;39.30;41.20;;;;;;5028824;28;20474;-79